sensor_id;sensor_type;location;lat;lon;timestamp;P1;durP1;ratioP1;P2;durP2;ratioP2
59338;SDS011;45117;50.960;5.500;2023-06-26T00:04:01;9.07;;;6.72;;
59338;SDS011;45117;50.960;5.500;2023-06-26T00:06:31;8.40;;;6.38;;
59338;SDS011;45117;50.960;5.500;2023-06-26T00:08:57;8.02;;;5.95;;
59338;SDS011;45117;50.960;5.500;2023-06-26T00:11:27;8.25;;;5.40;;
59338;SDS011;45117;50.960;5.500;2023-06-26T00:13:58;7.40;;;5.70;;
59338;SDS011;45117;50.960;5.500;2023-06-26T00:16:25;8.45;;;5.45;;
59338;SDS011;45117;50.960;5.500;2023-06-26T00:18:52;8.48;;;5.18;;
59338;SDS011;45117;50.960;5.500;2023-06-26T00:21:20;9.18;;;5.60;;
59338;SDS011;45117;50.960;5.500;2023-06-26T00:23:48;6.95;;;5.10;;
59338;SDS011;45117;50.960;5.500;2023-06-26T00:26:17;8.85;;;5.55;;
59338;SDS011;45117;50.960;5.500;2023-06-26T00:28:43;8.50;;;5.10;;
59338;SDS011;45117;50.960;5.500;2023-06-26T00:31:19;7.63;;;5.10;;
59338;SDS011;45117;50.960;5.500;2023-06-26T00:33:46;6.75;;;4.82;;
59338;SDS011;45117;50.960;5.500;2023-06-26T00:36:13;6.82;;;5.28;;
59338;SDS011;45117;50.960;5.500;2023-06-26T00:38:42;7.30;;;4.88;;
59338;SDS011;45117;50.960;5.500;2023-06-26T00:41:09;8.68;;;4.93;;
59338;SDS011;45117;50.960;5.500;2023-06-26T00:43:37;8.45;;;5.22;;
59338;SDS011;45117;50.960;5.500;2023-06-26T00:46:05;8.65;;;4.88;;
59338;SDS011;45117;50.960;5.500;2023-06-26T00:48:35;9.07;;;5.40;;
59338;SDS011;45117;50.960;5.500;2023-06-26T00:51:04;7.65;;;4.82;;
59338;SDS011;45117;50.960;5.500;2023-06-26T00:53:34;6.05;;;4.88;;
59338;SDS011;45117;50.960;5.500;2023-06-26T00:56:03;6.82;;;4.80;;
59338;SDS011;45117;50.960;5.500;2023-06-26T00:58:31;7.03;;;5.22;;
59338;SDS011;45117;50.960;5.500;2023-06-26T01:00:58;7.32;;;5.07;;
59338;SDS011;45117;50.960;5.500;2023-06-26T01:03:26;8.55;;;5.20;;
59338;SDS011;45117;50.960;5.500;2023-06-26T01:05:52;6.60;;;4.75;;
59338;SDS011;45117;50.960;5.500;2023-06-26T01:08:22;6.45;;;5.03;;
59338;SDS011;45117;50.960;5.500;2023-06-26T01:10:50;6.88;;;4.75;;
59338;SDS011;45117;50.960;5.500;2023-06-26T01:13:18;7.40;;;5.15;;
59338;SDS011;45117;50.960;5.500;2023-06-26T01:15:46;8.25;;;5.03;;
59338;SDS011;45117;50.960;5.500;2023-06-26T01:18:12;8.10;;;5.47;;
59338;SDS011;45117;50.960;5.500;2023-06-26T01:20:40;7.57;;;4.93;;
59338;SDS011;45117;50.960;5.500;2023-06-26T01:23:23;8.27;;;5.32;;
59338;SDS011;45117;50.960;5.500;2023-06-26T01:26:09;7.75;;;5.10;;
59338;SDS011;45117;50.960;5.500;2023-06-26T01:28:41;6.93;;;4.93;;
59338;SDS011;45117;50.960;5.500;2023-06-26T01:31:08;8.57;;;5.63;;
59338;SDS011;45117;50.960;5.500;2023-06-26T01:33:37;7.20;;;4.85;;
59338;SDS011;45117;50.960;5.500;2023-06-26T01:36:05;10.25;;;5.15;;
59338;SDS011;45117;50.960;5.500;2023-06-26T01:38:32;6.10;;;4.78;;
59338;SDS011;45117;50.960;5.500;2023-06-26T01:40:59;6.95;;;4.47;;
59338;SDS011;45117;50.960;5.500;2023-06-26T01:43:36;5.88;;;4.40;;
59338;SDS011;45117;50.960;5.500;2023-06-26T01:46:10;5.63;;;4.22;;
59338;SDS011;45117;50.960;5.500;2023-06-26T01:48:45;6.20;;;4.60;;
59338;SDS011;45117;50.960;5.500;2023-06-26T01:51:16;6.50;;;4.22;;
59338;SDS011;45117;50.960;5.500;2023-06-26T01:53:46;6.82;;;4.32;;
59338;SDS011;45117;50.960;5.500;2023-06-26T01:56:20;7.10;;;4.05;;
59338;SDS011;45117;50.960;5.500;2023-06-26T01:58:51;7.10;;;4.57;;
59338;SDS011;45117;50.960;5.500;2023-06-26T02:01:20;8.27;;;4.32;;
59338;SDS011;45117;50.960;5.500;2023-06-26T02:03:47;6.65;;;4.72;;
59338;SDS011;45117;50.960;5.500;2023-06-26T02:06:15;8.85;;;4.32;;
59338;SDS011;45117;50.960;5.500;2023-06-26T02:08:42;6.28;;;3.97;;
59338;SDS011;45117;50.960;5.500;2023-06-26T02:11:08;7.50;;;4.43;;
59338;SDS011;45117;50.960;5.500;2023-06-26T02:13:35;6.38;;;4.45;;
59338;SDS011;45117;50.960;5.500;2023-06-26T02:16:03;6.80;;;4.07;;
59338;SDS011;45117;50.960;5.500;2023-06-26T02:18:30;6.70;;;4.80;;
59338;SDS011;45117;50.960;5.500;2023-06-26T02:21:03;7.25;;;4.70;;
59338;SDS011;45117;50.960;5.500;2023-06-26T02:23:30;8.45;;;5.30;;
59338;SDS011;45117;50.960;5.500;2023-06-26T02:25:57;7.03;;;5.15;;
59338;SDS011;45117;50.960;5.500;2023-06-26T02:28:24;7.82;;;5.20;;
59338;SDS011;45117;50.960;5.500;2023-06-26T02:30:53;7.88;;;5.32;;
59338;SDS011;45117;50.960;5.500;2023-06-26T02:33:21;7.35;;;5.30;;
59338;SDS011;45117;50.960;5.500;2023-06-26T02:35:50;8.63;;;5.22;;
59338;SDS011;45117;50.960;5.500;2023-06-26T02:38:17;8.27;;;5.28;;
59338;SDS011;45117;50.960;5.500;2023-06-26T02:40:44;6.82;;;4.88;;
59338;SDS011;45117;50.960;5.500;2023-06-26T02:43:11;9.68;;;5.20;;
59338;SDS011;45117;50.960;5.500;2023-06-26T02:45:38;11.93;;;5.00;;
59338;SDS011;45117;50.960;5.500;2023-06-26T02:48:09;7.53;;;5.13;;
59338;SDS011;45117;50.960;5.500;2023-06-26T02:50:37;9.38;;;4.95;;
59338;SDS011;45117;50.960;5.500;2023-06-26T02:53:04;5.43;;;4.25;;
59338;SDS011;45117;50.960;5.500;2023-06-26T02:55:31;7.22;;;4.05;;
59338;SDS011;45117;50.960;5.500;2023-06-26T02:57:59;8.43;;;4.45;;
59338;SDS011;45117;50.960;5.500;2023-06-26T03:00:26;8.75;;;4.10;;
59338;SDS011;45117;50.960;5.500;2023-06-26T03:02:55;7.90;;;4.22;;
59338;SDS011;45117;50.960;5.500;2023-06-26T03:05:22;7.10;;;4.43;;
59338;SDS011;45117;50.960;5.500;2023-06-26T03:07:50;8.52;;;4.18;;
59338;SDS011;45117;50.960;5.500;2023-06-26T03:10:17;6.95;;;4.38;;
59338;SDS011;45117;50.960;5.500;2023-06-26T03:12:44;8.52;;;4.40;;
59338;SDS011;45117;50.960;5.500;2023-06-26T03:15:10;8.02;;;4.60;;
59338;SDS011;45117;50.960;5.500;2023-06-26T03:17:37;7.97;;;4.70;;
59338;SDS011;45117;50.960;5.500;2023-06-26T03:20:04;6.78;;;4.20;;
59338;SDS011;45117;50.960;5.500;2023-06-26T03:22:32;6.57;;;4.28;;
59338;SDS011;45117;50.960;5.500;2023-06-26T03:25:03;8.40;;;4.28;;
59338;SDS011;45117;50.960;5.500;2023-06-26T03:27:30;8.85;;;4.28;;
59338;SDS011;45117;50.960;5.500;2023-06-26T03:29:57;7.32;;;3.92;;
59338;SDS011;45117;50.960;5.500;2023-06-26T03:32:25;9.38;;;4.38;;
59338;SDS011;45117;50.960;5.500;2023-06-26T03:34:51;6.03;;;3.83;;
59338;SDS011;45117;50.960;5.500;2023-06-26T03:37:19;8.10;;;3.90;;
59338;SDS011;45117;50.960;5.500;2023-06-26T03:39:45;8.55;;;3.50;;
59338;SDS011;45117;50.960;5.500;2023-06-26T03:42:14;6.20;;;3.65;;
59338;SDS011;45117;50.960;5.500;2023-06-26T03:44:42;7.72;;;4.07;;
59338;SDS011;45117;50.960;5.500;2023-06-26T03:47:10;7.70;;;3.70;;
59338;SDS011;45117;50.960;5.500;2023-06-26T03:49:37;8.10;;;3.75;;
59338;SDS011;45117;50.960;5.500;2023-06-26T03:52:04;7.65;;;3.75;;
59338;SDS011;45117;50.960;5.500;2023-06-26T03:54:31;4.88;;;3.30;;
59338;SDS011;45117;50.960;5.500;2023-06-26T03:56:59;5.97;;;3.35;;
59338;SDS011;45117;50.960;5.500;2023-06-26T03:59:30;7.63;;;3.70;;
59338;SDS011;45117;50.960;5.500;2023-06-26T04:01:57;7.47;;;3.33;;
59338;SDS011;45117;50.960;5.500;2023-06-26T04:04:25;7.32;;;4.18;;
59338;SDS011;45117;50.960;5.500;2023-06-26T04:06:52;5.53;;;3.38;;
59338;SDS011;45117;50.960;5.500;2023-06-26T04:09:19;7.72;;;3.72;;
59338;SDS011;45117;50.960;5.500;2023-06-26T04:11:46;7.10;;;3.85;;
59338;SDS011;45117;50.960;5.500;2023-06-26T04:14:13;4.70;;;3.22;;
59338;SDS011;45117;50.960;5.500;2023-06-26T04:16:41;6.35;;;3.35;;
59338;SDS011;45117;50.960;5.500;2023-06-26T04:19:07;7.10;;;3.33;;
59338;SDS011;45117;50.960;5.500;2023-06-26T04:21:35;6.57;;;3.42;;
59338;SDS011;45117;50.960;5.500;2023-06-26T04:24:05;6.75;;;3.50;;
59338;SDS011;45117;50.960;5.500;2023-06-26T04:26:32;7.32;;;3.53;;
59338;SDS011;45117;50.960;5.500;2023-06-26T04:28:59;5.82;;;3.22;;
59338;SDS011;45117;50.960;5.500;2023-06-26T04:31:25;6.63;;;3.40;;
59338;SDS011;45117;50.960;5.500;2023-06-26T04:36:47;8.32;;;3.55;;
59338;SDS011;45117;50.960;5.500;2023-06-26T04:39:15;8.15;;;3.22;;
59338;SDS011;45117;50.960;5.500;2023-06-26T04:41:42;8.25;;;3.05;;
59338;SDS011;45117;50.960;5.500;2023-06-26T04:44:10;7.13;;;3.40;;
59338;SDS011;45117;50.960;5.500;2023-06-26T04:46:39;5.07;;;2.88;;
59338;SDS011;45117;50.960;5.500;2023-06-26T04:49:06;6.97;;;3.40;;
59338;SDS011;45117;50.960;5.500;2023-06-26T04:51:39;7.72;;;3.13;;
59338;SDS011;45117;50.960;5.500;2023-06-26T04:54:08;6.72;;;2.70;;
59338;SDS011;45117;50.960;5.500;2023-06-26T04:56:36;7.88;;;3.70;;
59338;SDS011;45117;50.960;5.500;2023-06-26T04:59:05;7.43;;;3.33;;
59338;SDS011;45117;50.960;5.500;2023-06-26T05:01:32;7.05;;;3.05;;
59338;SDS011;45117;50.960;5.500;2023-06-26T05:03:59;7.30;;;3.50;;
59338;SDS011;45117;50.960;5.500;2023-06-26T05:06:25;6.65;;;3.17;;
59338;SDS011;45117;50.960;5.500;2023-06-26T05:08:53;8.63;;;3.47;;
59338;SDS011;45117;50.960;5.500;2023-06-26T05:11:20;6.13;;;3.40;;
59338;SDS011;45117;50.960;5.500;2023-06-26T05:13:47;9.60;;;3.38;;
59338;SDS011;45117;50.960;5.500;2023-06-26T05:16:13;12.18;;;3.58;;
59338;SDS011;45117;50.960;5.500;2023-06-26T05:18:42;5.90;;;2.75;;
59338;SDS011;45117;50.960;5.500;2023-06-26T05:21:09;7.50;;;2.67;;
59338;SDS011;45117;50.960;5.500;2023-06-26T05:23:36;8.23;;;3.38;;
59338;SDS011;45117;50.960;5.500;2023-06-26T05:26:05;8.73;;;3.10;;
59338;SDS011;45117;50.960;5.500;2023-06-26T05:28:32;10.98;;;3.85;;
59338;SDS011;45117;50.960;5.500;2023-06-26T05:31:01;9.23;;;3.40;;
59338;SDS011;45117;50.960;5.500;2023-06-26T05:33:30;8.35;;;3.28;;
59338;SDS011;45117;50.960;5.500;2023-06-26T05:35:57;8.27;;;3.25;;
59338;SDS011;45117;50.960;5.500;2023-06-26T05:38:25;8.15;;;3.05;;
59338;SDS011;45117;50.960;5.500;2023-06-26T05:40:53;9.75;;;3.33;;
59338;SDS011;45117;50.960;5.500;2023-06-26T05:43:22;12.48;;;3.60;;
59338;SDS011;45117;50.960;5.500;2023-06-26T05:45:49;9.80;;;3.20;;
59338;SDS011;45117;50.960;5.500;2023-06-26T05:48:16;10.55;;;3.13;;
59338;SDS011;45117;50.960;5.500;2023-06-26T05:50:45;6.63;;;2.80;;
59338;SDS011;45117;50.960;5.500;2023-06-26T05:53:15;7.10;;;2.97;;
59338;SDS011;45117;50.960;5.500;2023-06-26T05:55:42;9.77;;;3.00;;
59338;SDS011;45117;50.960;5.500;2023-06-26T05:58:09;7.72;;;2.67;;
59338;SDS011;45117;50.960;5.500;2023-06-26T06:00:39;8.98;;;2.78;;
59338;SDS011;45117;50.960;5.500;2023-06-26T06:03:06;7.95;;;2.67;;
59338;SDS011;45117;50.960;5.500;2023-06-26T06:05:36;9.40;;;2.78;;
59338;SDS011;45117;50.960;5.500;2023-06-26T06:08:02;10.95;;;3.08;;
59338;SDS011;45117;50.960;5.500;2023-06-26T06:10:29;10.25;;;2.97;;
59338;SDS011;45117;50.960;5.500;2023-06-26T06:12:56;9.30;;;2.80;;
59338;SDS011;45117;50.960;5.500;2023-06-26T06:15:23;8.40;;;2.70;;
59338;SDS011;45117;50.960;5.500;2023-06-26T06:17:51;5.40;;;2.60;;
59338;SDS011;45117;50.960;5.500;2023-06-26T06:20:17;9.77;;;2.67;;
59338;SDS011;45117;50.960;5.500;2023-06-26T06:22:44;7.20;;;3.20;;
59338;SDS011;45117;50.960;5.500;2023-06-26T06:25:13;8.23;;;2.67;;
59338;SDS011;45117;50.960;5.500;2023-06-26T06:27:40;9.18;;;2.80;;
59338;SDS011;45117;50.960;5.500;2023-06-26T06:30:08;10.95;;;2.85;;
59338;SDS011;45117;50.960;5.500;2023-06-26T06:32:35;12.05;;;3.00;;
59338;SDS011;45117;50.960;5.500;2023-06-26T06:35:04;10.65;;;2.80;;
59338;SDS011;45117;50.960;5.500;2023-06-26T06:37:34;9.63;;;2.88;;
59338;SDS011;45117;50.960;5.500;2023-06-26T06:40:01;11.38;;;3.13;;
59338;SDS011;45117;50.960;5.500;2023-06-26T06:42:29;10.73;;;2.83;;
59338;SDS011;45117;50.960;5.500;2023-06-26T06:44:56;9.02;;;2.83;;
59338;SDS011;45117;50.960;5.500;2023-06-26T06:47:22;8.15;;;2.42;;
59338;SDS011;45117;50.960;5.500;2023-06-26T06:49:49;9.60;;;3.00;;
59338;SDS011;45117;50.960;5.500;2023-06-26T06:52:20;9.48;;;2.70;;
59338;SDS011;45117;50.960;5.500;2023-06-26T06:54:53;12.23;;;2.60;;
59338;SDS011;45117;50.960;5.500;2023-06-26T06:57:21;11.93;;;2.75;;
59338;SDS011;45117;50.960;5.500;2023-06-26T06:59:48;10.88;;;2.70;;
59338;SDS011;45117;50.960;5.500;2023-06-26T07:02:14;9.38;;;2.70;;
59338;SDS011;45117;50.960;5.500;2023-06-26T07:04:41;12.55;;;3.13;;
59338;SDS011;45117;50.960;5.500;2023-06-26T07:07:08;9.27;;;2.90;;
59338;SDS011;45117;50.960;5.500;2023-06-26T07:09:36;9.45;;;2.30;;
59338;SDS011;45117;50.960;5.500;2023-06-26T07:12:03;9.65;;;2.72;;
59338;SDS011;45117;50.960;5.500;2023-06-26T07:14:30;8.38;;;2.38;;
59338;SDS011;45117;50.960;5.500;2023-06-26T07:16:57;10.02;;;2.70;;
59338;SDS011;45117;50.960;5.500;2023-06-26T07:19:23;10.00;;;2.80;;
59338;SDS011;45117;50.960;5.500;2023-06-26T07:21:50;10.43;;;2.67;;
59338;SDS011;45117;50.960;5.500;2023-06-26T07:24:16;7.10;;;2.30;;
59338;SDS011;45117;50.960;5.500;2023-06-26T07:26:44;7.28;;;2.35;;
59338;SDS011;45117;50.960;5.500;2023-06-26T07:29:11;8.52;;;2.50;;
59338;SDS011;45117;50.960;5.500;2023-06-26T07:31:38;6.70;;;2.25;;
59338;SDS011;45117;50.960;5.500;2023-06-26T07:34:04;10.48;;;2.70;;
59338;SDS011;45117;50.960;5.500;2023-06-26T07:36:31;8.65;;;2.38;;
59338;SDS011;45117;50.960;5.500;2023-06-26T07:38:57;7.63;;;2.25;;
59338;SDS011;45117;50.960;5.500;2023-06-26T07:41:24;8.27;;;2.53;;
59338;SDS011;45117;50.960;5.500;2023-06-26T07:43:52;10.00;;;2.50;;
59338;SDS011;45117;50.960;5.500;2023-06-26T07:46:19;8.57;;;2.15;;
59338;SDS011;45117;50.960;5.500;2023-06-26T07:48:45;9.60;;;2.60;;
59338;SDS011;45117;50.960;5.500;2023-06-26T07:51:12;8.70;;;2.53;;
59338;SDS011;45117;50.960;5.500;2023-06-26T07:53:41;9.52;;;2.38;;
59338;SDS011;45117;50.960;5.500;2023-06-26T07:56:07;9.60;;;2.40;;
59338;SDS011;45117;50.960;5.500;2023-06-26T07:58:37;8.05;;;2.47;;
59338;SDS011;45117;50.960;5.500;2023-06-26T08:01:05;14.18;;;2.70;;
59338;SDS011;45117;50.960;5.500;2023-06-26T08:03:31;8.75;;;2.33;;
59338;SDS011;45117;50.960;5.500;2023-06-26T08:05:58;7.20;;;2.20;;
59338;SDS011;45117;50.960;5.500;2023-06-26T08:08:26;7.82;;;2.20;;
59338;SDS011;45117;50.960;5.500;2023-06-26T08:10:52;7.25;;;2.20;;
59338;SDS011;45117;50.960;5.500;2023-06-26T08:13:20;10.02;;;2.28;;
59338;SDS011;45117;50.960;5.500;2023-06-26T08:15:48;11.52;;;2.65;;
59338;SDS011;45117;50.960;5.500;2023-06-26T08:18:17;7.00;;;2.60;;
59338;SDS011;45117;50.960;5.500;2023-06-26T08:20:44;9.18;;;2.58;;
59338;SDS011;45117;50.960;5.500;2023-06-26T08:23:11;7.05;;;2.10;;
59338;SDS011;45117;50.960;5.500;2023-06-26T08:25:38;7.90;;;2.33;;
59338;SDS011;45117;50.960;5.500;2023-06-26T08:28:04;8.55;;;2.40;;
59338;SDS011;45117;50.960;5.500;2023-06-26T08:30:34;6.78;;;2.20;;
59338;SDS011;45117;50.960;5.500;2023-06-26T08:33:02;5.63;;;2.00;;
59338;SDS011;45117;50.960;5.500;2023-06-26T08:35:30;6.32;;;1.83;;
59338;SDS011;45117;50.960;5.500;2023-06-26T08:38:09;7.35;;;2.20;;
59338;SDS011;45117;50.960;5.500;2023-06-26T08:40:38;5.28;;;2.00;;
59338;SDS011;45117;50.960;5.500;2023-06-26T08:43:06;6.75;;;2.00;;
59338;SDS011;45117;50.960;5.500;2023-06-26T08:45:32;9.77;;;2.05;;
59338;SDS011;45117;50.960;5.500;2023-06-26T08:48:00;3.95;;;1.52;;
59338;SDS011;45117;50.960;5.500;2023-06-26T08:50:30;8.48;;;1.75;;
59338;SDS011;45117;50.960;5.500;2023-06-26T08:53:02;6.28;;;1.65;;
59338;SDS011;45117;50.960;5.500;2023-06-26T08:55:38;8.30;;;1.70;;
59338;SDS011;45117;50.960;5.500;2023-06-26T08:58:09;6.97;;;1.60;;
59338;SDS011;45117;50.960;5.500;2023-06-26T09:00:37;6.10;;;1.80;;
59338;SDS011;45117;50.960;5.500;2023-06-26T09:03:04;6.22;;;1.70;;
59338;SDS011;45117;50.960;5.500;2023-06-26T09:05:33;8.38;;;2.05;;
59338;SDS011;45117;50.960;5.500;2023-06-26T09:08:01;7.78;;;1.65;;
59338;SDS011;45117;50.960;5.500;2023-06-26T09:10:28;4.03;;;1.55;;
59338;SDS011;45117;50.960;5.500;2023-06-26T09:12:55;8.48;;;1.90;;
59338;SDS011;45117;50.960;5.500;2023-06-26T09:15:22;5.55;;;1.92;;
59338;SDS011;45117;50.960;5.500;2023-06-26T09:17:50;7.47;;;1.90;;
59338;SDS011;45117;50.960;5.500;2023-06-26T09:20:22;10.73;;;1.85;;
59338;SDS011;45117;50.960;5.500;2023-06-26T09:22:50;5.82;;;1.65;;
59338;SDS011;45117;50.960;5.500;2023-06-26T09:25:19;6.80;;;1.90;;
59338;SDS011;45117;50.960;5.500;2023-06-26T09:27:48;5.38;;;1.65;;
59338;SDS011;45117;50.960;5.500;2023-06-26T09:30:16;5.60;;;1.70;;
59338;SDS011;45117;50.960;5.500;2023-06-26T09:32:44;4.70;;;1.42;;
59338;SDS011;45117;50.960;5.500;2023-06-26T09:35:15;3.75;;;1.60;;
59338;SDS011;45117;50.960;5.500;2023-06-26T09:37:43;4.65;;;1.50;;
59338;SDS011;45117;50.960;5.500;2023-06-26T09:40:11;6.88;;;1.73;;
59338;SDS011;45117;50.960;5.500;2023-06-26T09:42:38;6.80;;;1.40;;
59338;SDS011;45117;50.960;5.500;2023-06-26T09:45:05;5.95;;;1.60;;
59338;SDS011;45117;50.960;5.500;2023-06-26T09:47:32;4.63;;;1.50;;
59338;SDS011;45117;50.960;5.500;2023-06-26T09:50:02;7.18;;;1.52;;
59338;SDS011;45117;50.960;5.500;2023-06-26T09:52:29;6.53;;;1.73;;
59338;SDS011;45117;50.960;5.500;2023-06-26T09:55:10;6.45;;;1.60;;
59338;SDS011;45117;50.960;5.500;2023-06-26T09:57:38;3.65;;;1.08;;
59338;SDS011;45117;50.960;5.500;2023-06-26T10:00:05;3.92;;;1.10;;
59338;SDS011;45117;50.960;5.500;2023-06-26T10:02:34;4.97;;;1.38;;
59338;SDS011;45117;50.960;5.500;2023-06-26T10:05:01;3.58;;;1.27;;
59338;SDS011;45117;50.960;5.500;2023-06-26T10:07:28;6.03;;;1.35;;
59338;SDS011;45117;50.960;5.500;2023-06-26T10:09:55;4.30;;;0.98;;
59338;SDS011;45117;50.960;5.500;2023-06-26T10:12:25;5.35;;;1.08;;
59338;SDS011;45117;50.960;5.500;2023-06-26T10:14:57;5.30;;;1.30;;
59338;SDS011;45117;50.960;5.500;2023-06-26T10:17:27;6.25;;;1.30;;
59338;SDS011;45117;50.960;5.500;2023-06-26T10:19:56;4.18;;;1.10;;
59338;SDS011;45117;50.960;5.500;2023-06-26T10:22:29;2.88;;;0.90;;
59338;SDS011;45117;50.960;5.500;2023-06-26T10:24:59;3.13;;;1.35;;
59338;SDS011;45117;50.960;5.500;2023-06-26T10:27:31;5.10;;;1.40;;
59338;SDS011;45117;50.960;5.500;2023-06-26T10:30:02;3.10;;;0.85;;
59338;SDS011;45117;50.960;5.500;2023-06-26T10:32:32;6.00;;;1.15;;
59338;SDS011;45117;50.960;5.500;2023-06-26T10:34:59;2.78;;;0.82;;
59338;SDS011;45117;50.960;5.500;2023-06-26T10:37:43;3.42;;;1.10;;
59338;SDS011;45117;50.960;5.500;2023-06-26T10:40:17;3.33;;;1.00;;
59338;SDS011;45117;50.960;5.500;2023-06-26T10:42:49;4.80;;;1.08;;
59338;SDS011;45117;50.960;5.500;2023-06-26T10:45:16;13.52;;;1.17;;
59338;SDS011;45117;50.960;5.500;2023-06-26T10:47:45;3.17;;;1.08;;
59338;SDS011;45117;50.960;5.500;2023-06-26T10:50:17;4.35;;;0.90;;
59338;SDS011;45117;50.960;5.500;2023-06-26T10:52:50;4.18;;;1.23;;
59338;SDS011;45117;50.960;5.500;2023-06-26T10:55:34;4.65;;;1.00;;
59338;SDS011;45117;50.960;5.500;2023-06-26T10:58:05;6.45;;;1.45;;
59338;SDS011;45117;50.960;5.500;2023-06-26T11:01:21;3.25;;;0.90;;
59338;SDS011;45117;50.960;5.500;2023-06-26T11:03:49;3.03;;;1.00;;
59338;SDS011;45117;50.960;5.500;2023-06-26T11:06:27;4.28;;;1.10;;
59338;SDS011;45117;50.960;5.500;2023-06-26T11:09:00;7.55;;;1.10;;
59338;SDS011;45117;50.960;5.500;2023-06-26T11:14:24;2.25;;;0.80;;
59338;SDS011;45117;50.960;5.500;2023-06-26T11:16:53;2.80;;;0.85;;
59338;SDS011;45117;50.960;5.500;2023-06-26T11:19:22;4.68;;;0.98;;
59338;SDS011;45117;50.960;5.500;2023-06-26T11:21:48;5.25;;;1.10;;
59338;SDS011;45117;50.960;5.500;2023-06-26T11:24:16;5.90;;;1.30;;
59338;SDS011;45117;50.960;5.500;2023-06-26T11:26:44;3.00;;;0.95;;
59338;SDS011;45117;50.960;5.500;2023-06-26T11:29:12;4.32;;;1.17;;
59338;SDS011;45117;50.960;5.500;2023-06-26T11:31:40;4.18;;;1.10;;
59338;SDS011;45117;50.960;5.500;2023-06-26T11:34:09;4.32;;;0.88;;
59338;SDS011;45117;50.960;5.500;2023-06-26T11:36:37;3.38;;;0.82;;
59338;SDS011;45117;50.960;5.500;2023-06-26T11:39:05;5.55;;;0.95;;
59338;SDS011;45117;50.960;5.500;2023-06-26T11:41:32;3.97;;;1.00;;
59338;SDS011;45117;50.960;5.500;2023-06-26T11:44:00;2.78;;;1.10;;
59338;SDS011;45117;50.960;5.500;2023-06-26T11:46:28;3.60;;;1.00;;
59338;SDS011;45117;50.960;5.500;2023-06-26T11:48:55;6.13;;;1.10;;
59338;SDS011;45117;50.960;5.500;2023-06-26T11:51:23;4.88;;;0.80;;
59338;SDS011;45117;50.960;5.500;2023-06-26T11:53:49;4.38;;;1.00;;
59338;SDS011;45117;50.960;5.500;2023-06-26T11:56:17;3.30;;;1.00;;
59338;SDS011;45117;50.960;5.500;2023-06-26T11:58:56;12.80;;;1.52;;
59338;SDS011;45117;50.960;5.500;2023-06-26T12:01:30;9.07;;;1.00;;
59338;SDS011;45117;50.960;5.500;2023-06-26T12:04:00;5.82;;;1.00;;
59338;SDS011;45117;50.960;5.500;2023-06-26T12:06:30;7.97;;;1.00;;
59338;SDS011;45117;50.960;5.500;2023-06-26T12:08:58;4.45;;;0.75;;
59338;SDS011;45117;50.960;5.500;2023-06-26T12:11:26;3.20;;;0.80;;
59338;SDS011;45117;50.960;5.500;2023-06-26T12:13:55;4.38;;;1.00;;
59338;SDS011;45117;50.960;5.500;2023-06-26T12:16:22;4.53;;;1.10;;
59338;SDS011;45117;50.960;5.500;2023-06-26T12:18:50;2.45;;;1.00;;
59338;SDS011;45117;50.960;5.500;2023-06-26T12:24:14;2.55;;;0.90;;
59338;SDS011;45117;50.960;5.500;2023-06-26T12:26:41;1.92;;;0.70;;
59338;SDS011;45117;50.960;5.500;2023-06-26T12:29:10;5.25;;;1.38;;
59338;SDS011;45117;50.960;5.500;2023-06-26T12:31:39;6.30;;;1.33;;
59338;SDS011;45117;50.960;5.500;2023-06-26T12:34:08;4.25;;;1.00;;
59338;SDS011;45117;50.960;5.500;2023-06-26T12:36:39;4.25;;;1.20;;
59338;SDS011;45117;50.960;5.500;2023-06-26T12:39:08;3.00;;;0.95;;
59338;SDS011;45117;50.960;5.500;2023-06-26T12:41:43;5.30;;;1.35;;
59338;SDS011;45117;50.960;5.500;2023-06-26T12:44:16;4.50;;;1.27;;
59338;SDS011;45117;50.960;5.500;2023-06-26T12:46:43;2.55;;;1.08;;
59338;SDS011;45117;50.960;5.500;2023-06-26T12:49:15;5.38;;;1.70;;
59338;SDS011;45117;50.960;5.500;2023-06-26T12:51:42;6.57;;;1.80;;
59338;SDS011;45117;50.960;5.500;2023-06-26T12:54:11;4.88;;;1.60;;
59338;SDS011;45117;50.960;5.500;2023-06-26T12:56:37;7.10;;;1.75;;
59338;SDS011;45117;50.960;5.500;2023-06-26T12:59:04;3.17;;;0.90;;
59338;SDS011;45117;50.960;5.500;2023-06-26T13:01:31;5.97;;;0.93;;
59338;SDS011;45117;50.960;5.500;2023-06-26T13:03:57;2.53;;;0.80;;
59338;SDS011;45117;50.960;5.500;2023-06-26T13:06:27;2.33;;;0.82;;
59338;SDS011;45117;50.960;5.500;2023-06-26T13:08:54;2.08;;;0.90;;
59338;SDS011;45117;50.960;5.500;2023-06-26T13:11:22;2.70;;;0.77;;
59338;SDS011;45117;50.960;5.500;2023-06-26T13:13:48;5.18;;;0.90;;
59338;SDS011;45117;50.960;5.500;2023-06-26T13:16:15;3.63;;;1.20;;
59338;SDS011;45117;50.960;5.500;2023-06-26T13:18:43;6.43;;;1.02;;
59338;SDS011;45117;50.960;5.500;2023-06-26T13:21:10;1.75;;;0.90;;
59338;SDS011;45117;50.960;5.500;2023-06-26T13:23:46;5.70;;;1.10;;
59338;SDS011;45117;50.960;5.500;2023-06-26T13:26:13;2.78;;;0.90;;
59338;SDS011;45117;50.960;5.500;2023-06-26T13:28:41;3.67;;;1.08;;
59338;SDS011;45117;50.960;5.500;2023-06-26T13:31:07;6.38;;;1.27;;
59338;SDS011;45117;50.960;5.500;2023-06-26T13:33:34;7.05;;;1.27;;
59338;SDS011;45117;50.960;5.500;2023-06-26T13:36:00;3.80;;;1.17;;
59338;SDS011;45117;50.960;5.500;2023-06-26T13:38:29;3.85;;;0.80;;
59338;SDS011;45117;50.960;5.500;2023-06-26T13:40:56;4.10;;;1.17;;
59338;SDS011;45117;50.960;5.500;2023-06-26T13:43:24;3.78;;;1.00;;
59338;SDS011;45117;50.960;5.500;2023-06-26T13:45:52;3.10;;;1.10;;
59338;SDS011;45117;50.960;5.500;2023-06-26T13:48:19;4.47;;;1.30;;
59338;SDS011;45117;50.960;5.500;2023-06-26T13:50:46;4.55;;;1.17;;
59338;SDS011;45117;50.960;5.500;2023-06-26T13:53:13;3.35;;;1.20;;
59338;SDS011;45117;50.960;5.500;2023-06-26T13:55:40;3.25;;;1.00;;
59338;SDS011;45117;50.960;5.500;2023-06-26T13:58:07;3.10;;;0.90;;
59338;SDS011;45117;50.960;5.500;2023-06-26T14:00:34;3.85;;;1.20;;
59338;SDS011;45117;50.960;5.500;2023-06-26T14:03:03;2.22;;;0.90;;
59338;SDS011;45117;50.960;5.500;2023-06-26T14:05:37;1.98;;;0.88;;
59338;SDS011;45117;50.960;5.500;2023-06-26T14:08:04;2.10;;;0.85;;
59338;SDS011;45117;50.960;5.500;2023-06-26T14:10:32;3.33;;;0.90;;
59338;SDS011;45117;50.960;5.500;2023-06-26T14:13:00;3.80;;;0.95;;
59338;SDS011;45117;50.960;5.500;2023-06-26T14:15:28;2.90;;;1.00;;
59338;SDS011;45117;50.960;5.500;2023-06-26T14:17:54;3.65;;;1.20;;
59338;SDS011;45117;50.960;5.500;2023-06-26T14:20:22;6.25;;;1.40;;
59338;SDS011;45117;50.960;5.500;2023-06-26T14:22:49;4.25;;;1.30;;
59338;SDS011;45117;50.960;5.500;2023-06-26T14:25:16;2.38;;;1.08;;
59338;SDS011;45117;50.960;5.500;2023-06-26T14:27:43;4.40;;;1.10;;
59338;SDS011;45117;50.960;5.500;2023-06-26T14:30:10;3.63;;;1.27;;
59338;SDS011;45117;50.960;5.500;2023-06-26T14:32:37;3.55;;;1.50;;
59338;SDS011;45117;50.960;5.500;2023-06-26T14:35:04;21.23;;;1.88;;
59338;SDS011;45117;50.960;5.500;2023-06-26T14:37:35;5.07;;;1.17;;
59338;SDS011;45117;50.960;5.500;2023-06-26T14:40:05;14.30;;;1.55;;
59338;SDS011;45117;50.960;5.500;2023-06-26T14:42:32;6.18;;;1.30;;
59338;SDS011;45117;50.960;5.500;2023-06-26T14:44:59;5.72;;;1.08;;
59338;SDS011;45117;50.960;5.500;2023-06-26T14:47:25;3.60;;;1.08;;
59338;SDS011;45117;50.960;5.500;2023-06-26T14:49:52;3.95;;;1.00;;
59338;SDS011;45117;50.960;5.500;2023-06-26T14:52:18;3.45;;;1.10;;
59338;SDS011;45117;50.960;5.500;2023-06-26T14:54:47;6.78;;;1.10;;
59338;SDS011;45117;50.960;5.500;2023-06-26T14:57:13;4.68;;;1.00;;
59338;SDS011;45117;50.960;5.500;2023-06-26T14:59:40;28.05;;;2.95;;
59338;SDS011;45117;50.960;5.500;2023-06-26T15:02:07;4.18;;;1.40;;
59338;SDS011;45117;50.960;5.500;2023-06-26T15:04:33;3.25;;;0.98;;